Hartland Point — ZIQS6 — position and weather

sailwx.info

Track history (hours):
 
Tides and Currents Weather Stations Pressure Air Temp Water Temp Dewpoint Dewpoint Depression Visibility Wind Speed Wind Dir Waves Ship Positions

Hartland Point

Last reported at 2017-Jun-25 17:28 UTC. Time now 2017-Jun-27 19:03 UTC.
Position N 55°08' E 019°12'.

Length 193 m; draft 5.8 m.

Type: Ship. MMSI: 235505000.

Date/timePositionNaut miles runAvg speedWind from/ knotsBaromVisibWave heightAir tempDewpointWater temp
2017-Jun-25 17:28N 55°08' E 019°12'612.4
2017-Jun-25 17:00N 55°03' E 019°09'612.4
2017-Jun-25 16:30N 54°57' E 019°07'510.3
2017-Jun-25 16:00N 54°52' E 019°04'612.1
2017-Jun-25 15:30N 54°46' E 019°02'612.9
2017-Jun-25 15:00N 54°40' E 018°58'1212.0
2017-Jun-25 14:00N 54°29' E 018°49'0 0.7
2017-Jun-25 13:28N 54°29' E 018°49'0 0.2
2017-Jun-25 12:58N 54°29' E 018°49'0 0.0
2017-Jun-25 12:28N 54°29' E 018°49'0 0.0
2017-Jun-25 11:58N 54°29' E 018°49'0 0.0
2017-Jun-25 11:28N 54°29' E 018°49'0 0.0
2017-Jun-25 10:58N 54°29' E 018°49'0 0.0
2017-Jun-25 10:28N 54°29' E 018°49'0 0.1
2017-Jun-25 09:58N 54°29' E 018°49'0 0.0
2017-Jun-25 09:28N 54°29' E 018°49'0 0.0
2017-Jun-25 08:58N 54°29' E 018°49'0 0.0
2017-Jun-25 08:28N 54°29' E 018°49'0 0.0
2017-Jun-25 07:55N 54°29' E 018°49'0 0.0
2017-Jun-25 07:28N 54°29' E 018°49'0 0.0
2017-Jun-25 06:58N 54°29' E 018°49'0 0.0
2017-Jun-25 06:25N 54°29' E 018°49'0 0.0
2017-Jun-25 05:58N 54°29' E 018°49'0 0.0
2017-Jun-25 05:28N 54°29' E 018°49'0 0.1
2017-Jun-25 04:58N 54°29' E 018°49'0 0.0
2017-Jun-25 04:28N 54°29' E 018°49'0 0.0
2017-Jun-25 03:58N 54°29' E 018°49'0 0.1
2017-Jun-25 03:28N 54°29' E 018°49'0 0.1
2017-Jun-25 02:55N 54°29' E 018°49'0 0.0
2017-Jun-25 02:28N 54°29' E 018°49'0 0.1
2017-Jun-25 01:58N 54°29' E 018°49'0 0.1
2017-Jun-25 01:25N 54°29' E 018°49'0 0.0
2017-Jun-25 00:58N 54°29' E 018°49'0 0.1
2017-Jun-25 00:28N 54°29' E 018°49'0 0.0
2017-Jun-24 23:58N 54°29' E 018°49'0 0.0
2017-Jun-24 23:28N 54°29' E 018°49'0 0.1
2017-Jun-24 22:58N 54°29' E 018°49'0 0.1
2017-Jun-24 22:30N 54°29' E 018°49'0 0.0
2017-Jun-24 22:00N 54°29' E 018°49'0 0.0
2017-Jun-24 21:30N 54°29' E 018°49'0 0.1
2017-Jun-24 21:00N 54°29' E 018°49'0 0.1
2017-Jun-24 20:30N 54°29' E 018°49'0 0.1
2017-Jun-24 20:00N 54°29' E 018°49'0 0.2
2017-Jun-24 19:30N 54°29' E 018°49'0 0.1
2017-Jun-24 19:00N 54°29' E 018°49'0 0.0
2017-Jun-24 18:30N 54°29' E 018°49'0 0.1
2017-Jun-24 18:00N 54°29' E 018°49'0 0.4
2017-Jun-24 17:31N 54°29' E 018°49'5 9.4
2017-Jun-24 17:00N 54°28' E 018°41'2 3.1
2017-Jun-24 16:30N 54°29' E 018°43'3 5.8
2017-Jun-24 16:00N 54°31' E 018°46'2 4.7
2017-Jun-24 15:30N 54°31' E 018°50'3 6.9
2017-Jun-24 15:00N 54°32' E 018°56'4 4.0
2017-Jun-24 14:00N 54°28' E 018°54'4 8.1
2017-Jun-24 13:30N 54°32' E 018°51'612.2
2017-Jun-24 13:00N 54°28' E 018°43'4 7.3
2017-Jun-24 12:31N 54°25' E 018°40'2 4.1
2017-Jun-24 12:00N 54°23' E 018°40'0 0.4
2017-Jun-24 11:30N 54°23' E 018°40'0 0.0
2017-Jun-24 11:00N 54°23' E 018°40'0 0.0
2017-Jun-24 10:30N 54°23' E 018°40'0 0.0
2017-Jun-24 10:00N 54°23' E 018°40'0 0.0
2017-Jun-24 09:30N 54°23' E 018°40'0 0.0
2017-Jun-24 09:00N 54°23' E 018°40'0 0.0
2017-Jun-24 08:30N 54°23' E 018°40'0 0.0
2017-Jun-24 08:00N 54°23' E 018°40'0 0.0
2017-Jun-24 07:30N 54°23' E 018°40'0 0.0
2017-Jun-24 07:00N 54°23' E 018°40'0 0.0
2017-Jun-24 06:30N 54°23' E 018°40'0 0.0
2017-Jun-24 06:00N 54°23' E 018°40'0 0.0
2017-Jun-24 05:30N 54°23' E 018°40'0 0.0
2017-Jun-24 05:00N 54°23' E 018°40'0 0.0
2017-Jun-24 04:30N 54°23' E 018°40'0 0.0
2017-Jun-24 04:00N 54°23' E 018°40'0 0.0
2017-Jun-24 03:30N 54°23' E 018°40'0 0.0
2017-Jun-24 03:00N 54°23' E 018°40'0 0.0
2017-Jun-24 02:30N 54°23' E 018°40'0 0.0
2017-Jun-24 02:00N 54°23' E 018°40'0 0.0
2017-Jun-24 01:30N 54°23' E 018°40'0 0.0
2017-Jun-24 01:00N 54°23' E 018°40'0 0.0
2017-Jun-24 00:30N 54°23' E 018°40'0 0.0
2017-Jun-24 00:00N 54°23' E 018°40'0 0.0
2017-Jun-23 23:30N 54°23' E 018°40'0 0.0
2017-Jun-23 23:00N 54°23' E 018°40'0 0.0
2017-Jun-23 22:30N 54°23' E 018°40'0 0.0
2017-Jun-23 22:00N 54°23' E 018°40'0 0.0
2017-Jun-23 21:30N 54°23' E 018°40'0 0.0
2017-Jun-23 21:00N 54°23' E 018°40'0 0.0
2017-Jun-23 20:27N 54°23' E 018°40'0 0.0
2017-Jun-23 20:00N 54°23' E 018°40'0 0.0
2017-Jun-23 19:30N 54°23' E 018°40'0 0.0
2017-Jun-23 19:00N 54°23' E 018°40'0 0.0
2017-Jun-23 18:30N 54°23' E 018°40'0 0.0
2017-Jun-23 18:00N 54°23' E 018°40'0 0.0
2017-Jun-23 17:30N 54°23' E 018°40'0 0.0
2017-Jun-23 17:00N 54°23' E 018°40'0 0.0
2017-Jun-23 16:30N 54°23' E 018°40'0 0.0
2017-Jun-23 16:00N 54°23' E 018°40'0 0.0
2017-Jun-23 15:30N 54°23' E 018°40'0 0.0
2017-Jun-23 15:00N 54°23' E 018°40'0 0.0
2017-Jun-23 14:00N 54°23' E 018°40'0 0.0
2017-Jun-23 13:24N 54°23' E 018°40'0 0.0
2017-Jun-23 13:00N 54°23' E 018°40'0 0.0
2017-Jun-23 12:30N 54°23' E 018°40'0 0.0
2017-Jun-23 12:00N 54°23' E 018°40'0 0.0
2017-Jun-23 11:30N 54°23' E 018°40'0 0.0
2017-Jun-23 11:00N 54°23' E 018°40'0 0.0
2017-Jun-23 10:30N 54°23' E 018°40'0 0.0
2017-Jun-23 10:00N 54°23' E 018°40'0 0.0
2017-Jun-23 09:30N 54°23' E 018°40'0 0.0
2017-Jun-23 09:00N 54°23' E 018°40'0 0.0
2017-Jun-23 08:30N 54°23' E 018°40'0 0.0
2017-Jun-23 08:00N 54°23' E 018°40'0 0.0
2017-Jun-23 07:30N 54°23' E 018°40'0 0.0
2017-Jun-23 07:00N 54°23' E 018°40'0 0.0
2017-Jun-23 06:30N 54°23' E 018°40'0 0.0
2017-Jun-23 06:00N 54°23' E 018°40'0 0.0
2017-Jun-23 05:30N 54°23' E 018°40'0 0.0
2017-Jun-23 05:00N 54°23' E 018°40'0 0.0
2017-Jun-23 04:30N 54°23' E 018°40'0 0.0
2017-Jun-23 04:00N 54°23' E 018°40'0 0.0
2017-Jun-23 03:30N 54°23' E 018°40'0 0.0
2017-Jun-23 03:00N 54°23' E 018°40'0 0.0
2017-Jun-23 02:30N 54°23' E 018°40'0 0.0
2017-Jun-23 02:00N 54°23' E 018°40'0 0.0
2017-Jun-23 01:30N 54°23' E 018°40'0 0.0
2017-Jun-23 01:00N 54°23' E 018°40'0 0.0
2017-Jun-23 00:30N 54°23' E 018°40'0 0.0
2017-Jun-23 00:00N 54°23' E 018°40'0 0.0
2017-Jun-22 23:30N 54°23' E 018°40'0 0.0
2017-Jun-22 23:00N 54°23' E 018°40'0 0.0
2017-Jun-22 22:30N 54°23' E 018°40'0 0.0
2017-Jun-22 22:00N 54°23' E 018°40'0 0.0
2017-Jun-22 21:30N 54°23' E 018°40'0 0.0
2017-Jun-22 21:00N 54°23' E 018°40'0 0.0
2017-Jun-22 20:30N 54°23' E 018°40'0 0.0
2017-Jun-22 20:00N 54°23' E 018°40'0 0.0
2017-Jun-22 19:30N 54°23' E 018°40'0 0.0
2017-Jun-22 19:00N 54°23' E 018°40'0 0.0
2017-Jun-22 18:30N 54°23' E 018°40'0 0.0
2017-Jun-22 18:00N 54°23' E 018°40'0 0.0
2017-Jun-22 17:30N 54°23' E 018°40'0 0.0
2017-Jun-22 17:00N 54°23' E 018°40'0 0.0
2017-Jun-22 16:30N 54°23' E 018°40'0 0.0
2017-Jun-22 16:00N 54°23' E 018°40'0 0.0
2017-Jun-22 15:30N 54°23' E 018°40'0 0.0
2017-Jun-22 15:00N 54°23' E 018°40'0 0.0
2017-Jun-22 14:00N 54°23' E 018°40'0 0.0
2017-Jun-22 13:30N 54°23' E 018°40'0 0.0
2017-Jun-22 13:00N 54°23' E 018°40'0 0.0
2017-Jun-22 12:29N 54°23' E 018°40'0 0.0
2017-Jun-22 11:59N 54°23' E 018°40'0 0.0
2017-Jun-22 11:29N 54°23' E 018°40'0 0.0
2017-Jun-22 10:59N 54°23' E 018°40'0 0.0
2017-Jun-22 10:29N 54°23' E 018°40'0 0.0
2017-Jun-22 09:59N 54°23' E 018°40'0 0.0
2017-Jun-22 09:29N 54°23' E 018°40'0 0.0
2017-Jun-22 08:59N 54°23' E 018°40'0 0.0
2017-Jun-22 08:29N 54°23' E 018°40'0 0.0
2017-Jun-22 07:59N 54°23' E 018°40'0 0.0
2017-Jun-22 07:29N 54°23' E 018°40'0 0.0
2017-Jun-22 06:59N 54°23' E 018°40'0 0.0
2017-Jun-22 06:29N 54°23' E 018°40'0 0.0
2017-Jun-22 05:59N 54°23' E 018°40'0 0.0
2017-Jun-22 05:29N 54°23' E 018°40'0 0.0
2017-Jun-22 04:59N 54°23' E 018°40'0 0.0
2017-Jun-21 16:56N 54°23' E 018°40'0 0.0
2017-Jun-21 16:29N 54°23' E 018°40'0 0.0
2017-Jun-21 15:59N 54°23' E 018°40'0 0.0
2017-Jun-21 15:29N 54°23' E 018°40'0 0.0
2017-Jun-21 14:59N 54°23' E 018°40'0 0.0
2017-Jun-21 13:59N 54°23' E 018°40'0 0.0
2017-Jun-21 13:29N 54°23' E 018°40'0 0.0
2017-Jun-21 12:59N 54°23' E 018°40'0 0.0
2017-Jun-21 12:29N 54°23' E 018°40'0 0.0
2017-Jun-21 11:59N 54°23' E 018°40'0 0.0
2017-Jun-21 11:29N 54°23' E 018°40'0 0.0
2017-Jun-21 10:59N 54°23' E 018°40'0 0.0
2017-Jun-21 10:29N 54°23' E 018°40'0 0.0
2017-Jun-21 09:59N 54°23' E 018°40'0 0.0
2017-Jun-21 09:29N 54°23' E 018°40'0 0.0
2017-Jun-21 08:59N 54°23' E 018°40'0 0.0
2017-Jun-21 08:29N 54°23' E 018°40'0 0.0
2017-Jun-21 07:59N 54°23' E 018°40'0 0.0
2017-Jun-21 07:29N 54°23' E 018°40'0 0.0
2017-Jun-21 06:59N 54°23' E 018°40'0 0.0
2017-Jun-21 06:29N 54°23' E 018°40'0 0.0
2017-Jun-21 05:59N 54°23' E 018°40'0 0.0
2017-Jun-21 05:29N 54°23' E 018°40'0 0.0
2017-Jun-20 18:47N 54°23' E 018°40'0 0.0
2017-Jun-20 18:29N 54°23' E 018°40'0 0.0
2017-Jun-20 17:59N 54°23' E 018°40'0 0.0
2017-Jun-20 17:29N 54°23' E 018°40'0 0.0
2017-Jun-20 16:59N 54°23' E 018°40'0 0.0
2017-Jun-20 16:29N 54°23' E 018°40'0 0.0
2017-Jun-20 15:59N 54°23' E 018°40'0 0.0
2017-Jun-20 15:29N 54°23' E 018°40'0 0.0
2017-Jun-20 14:59N 54°23' E 018°40'0 0.0
2017-Jun-20 13:59N 54°23' E 018°40'0 0.0
2017-Jun-20 13:29N 54°23' E 018°40'0 0.0
2017-Jun-20 12:59N 54°23' E 018°40'0 0.0
2017-Jun-20 12:29N 54°23' E 018°40'0 0.0
2017-Jun-20 11:59N 54°23' E 018°40'0 0.0
2017-Jun-20 11:29N 54°23' E 018°40'0 0.0
2017-Jun-20 10:59N 54°23' E 018°40'0 0.0
2017-Jun-20 10:29N 54°23' E 018°40'0 0.0
2017-Jun-20 09:59N 54°23' E 018°40'0 0.0
2017-Jun-20 09:29N 54°23' E 018°40'0 0.0
2017-Jun-20 08:59N 54°23' E 018°40'0 0.0
2017-Jun-20 08:29N 54°23' E 018°40'0 0.0
2017-Jun-20 07:59N 54°23' E 018°40'0 0.0
2017-Jun-20 07:29N 54°23' E 018°40'0 0.0
2017-Jun-19 20:11N 54°23' E 018°40'0 0.0
2017-Jun-19 19:59N 54°23' E 018°40'0 0.0
2017-Jun-19 19:29N 54°23' E 018°40'0 0.2
2017-Jun-19 18:16N 54°23' E 018°39'0 0.1
2017-Jun-19 17:58N 54°23' E 018°39'0 0.0
2017-Jun-19 17:28N 54°23' E 018°39'0 0.0
2017-Jun-19 16:58N 54°23' E 018°39'0 0.0
2017-Jun-19 16:28N 54°23' E 018°39'0 0.0
2017-Jun-19 15:58N 54°23' E 018°39'0 0.0
2017-Jun-19 15:28N 54°23' E 018°39'0 0.0
2017-Jun-19 14:58N 54°23' E 018°39'0 0.0
2017-Jun-19 14:28N 54°23' E 018°39'0 0.0
2017-Jun-19 13:28N 54°23' E 018°39'0 0.0
2017-Jun-19 12:58N 54°23' E 018°39'0 0.0
2017-Jun-19 12:28N 54°23' E 018°39'0 0.0
2017-Jun-19 11:58N 54°23' E 018°39'0 0.0
2017-Jun-19 11:28N 54°23' E 018°39'0 0.0
2017-Jun-19 10:58N 54°23' E 018°39'0 0.0
2017-Jun-19 10:28N 54°23' E 018°39'0 0.0
2017-Jun-19 09:58N 54°23' E 018°39'0 0.0
2017-Jun-19 09:28N 54°23' E 018°39'0 0.0
2017-Jun-19 08:58N 54°23' E 018°39'0 0.0
2017-Jun-19 08:28N 54°23' E 018°39'0 0.0
2017-Jun-19 07:59N 54°23' E 018°39'0 0.0
2017-Jun-19 07:29N 54°23' E 018°39'0 0.0
2017-Jun-18 15:50N 54°23' E 018°39'0 0.0
2017-Jun-18 15:29N 54°23' E 018°39'0 0.0
2017-Jun-18 14:59N 54°23' E 018°39'0 0.0
2017-Jun-18 13:58N 54°23' E 018°39'0 0.0
2017-Jun-18 08:38N 54°23' E 018°39'0 0.0
2017-Jun-18 08:29N 54°23' E 018°39'0 0.0
2017-Jun-18 07:59N 54°23' E 018°39'0 0.0
2017-Jun-18 07:29N 54°23' E 018°39'0 0.0
2017-Jun-18 06:59N 54°23' E 018°39'0 0.0
2017-Jun-18 06:29N 54°23' E 018°39'0 0.0
2017-Jun-18 05:59N 54°23' E 018°39'0 0.0
2017-Jun-18 05:29N 54°23' E 018°39'0 0.0
2017-Jun-18 04:59N 54°23' E 018°39'0 0.0
2017-Jun-18 04:29N 54°23' E 018°39'0 0.0
2017-Jun-18 03:59N 54°23' E 018°39'0 0.0
2017-Jun-18 03:29N 54°23' E 018°39'0 0.0
2017-Jun-18 02:59N 54°23' E 018°39'0 0.0
2017-Jun-18 02:29N 54°23' E 018°39'0 0.0
2017-Jun-18 01:59N 54°23' E 018°39'0 0.0
2017-Jun-18 01:29N 54°23' E 018°39'0 0.0
2017-Jun-18 00:59N 54°23' E 018°39'0 0.0
2017-Jun-18 00:29N 54°23' E 018°39'0 0.0
2017-Jun-17 23:59N 54°23' E 018°39'0 0.0
2017-Jun-17 23:29N 54°23' E 018°39'0 0.0
2017-Jun-17 22:59N 54°23' E 018°39'0 0.0
2017-Jun-17 22:29N 54°23' E 018°39'0 0.0
2017-Jun-17 21:59N 54°23' E 018°39'0 0.0
2017-Jun-17 21:29N 54°23' E 018°39'0 0.0
2017-Jun-17 20:59N 54°23' E 018°39'0 0.0
2017-Jun-17 20:29N 54°23' E 018°39'0 0.0
2017-Jun-17 19:59N 54°23' E 018°39'0 0.0
2017-Jun-17 19:29N 54°23' E 018°39'0 0.0
2017-Jun-17 18:59N 54°23' E 018°39'0 0.0
2017-Jun-17 18:29N 54°23' E 018°39'0 0.0
2017-Jun-17 17:59N 54°23' E 018°39'0 0.0
2017-Jun-17 17:29N 54°23' E 018°39'0 0.0
2017-Jun-17 16:59N 54°23' E 018°39'0 0.0
2017-Jun-17 16:29N 54°23' E 018°39'0 0.0
2017-Jun-17 15:59N 54°23' E 018°39'0 0.0
2017-Jun-17 15:29N 54°23' E 018°39'0 0.0
2017-Jun-17 14:59N 54°23' E 018°39'0 0.0
2017-Jun-17 14:29N 54°23' E 018°39'0 0.0
2017-Jun-17 13:29N 54°23' E 018°39'0 0.0
2017-Jun-17 12:59N 54°23' E 018°39'0 0.0
2017-Jun-17 12:29N 54°23' E 018°39'0 0.0
2017-Jun-17 11:59N 54°23' E 018°39'0 0.0
2017-Jun-17 11:29N 54°23' E 018°39'0 0.0
2017-Jun-17 10:59N 54°23' E 018°39'0 0.0
2017-Jun-17 10:29N 54°23' E 018°39'0 0.0
2017-Jun-17 09:59N 54°23' E 018°39'0 0.0
2017-Jun-17 09:29N 54°23' E 018°39'0 0.0
2017-Jun-17 08:59N 54°23' E 018°39'0 0.0
2017-Jun-17 08:29N 54°23' E 018°39'0 0.0
2017-Jun-17 07:59N 54°23' E 018°39'0 0.0
2017-Jun-17 07:29N 54°23' E 018°39'0 0.0
2017-Jun-17 06:59N 54°23' E 018°39'0 0.0
2017-Jun-17 06:27N 54°23' E 018°39'0 0.0
2017-Jun-17 06:00N 54°23' E 018°39'0 0.0
2017-Jun-17 05:31N 54°23' E 018°39'0 0.0
2017-Jun-17 05:00N 54°23' E 018°39'0 0.0
2017-Jun-17 04:30N 54°23' E 018°39'0 0.0
2017-Jun-17 04:01N 54°23' E 018°39'0 0.0
2017-Jun-17 03:30N 54°23' E 018°39'0 0.0
2017-Jun-17 03:01N 54°23' E 018°39'0 0.0
2017-Jun-17 02:30N 54°23' E 018°39'0 0.0
2017-Jun-17 02:01N 54°23' E 018°39'0 0.0
2017-Jun-17 01:30N 54°23' E 018°39'0 0.0
2017-Jun-17 01:01N 54°23' E 018°39'0 0.0
2017-Jun-17 00:30N 54°23' E 018°39'0 0.0
2017-Jun-17 00:01N 54°23' E 018°39'0 0.0
2017-Jun-16 23:31N 54°23' E 018°39'0 0.0
2017-Jun-16 23:01N 54°23' E 018°39'0 0.0
2017-Jun-16 22:30N 54°23' E 018°39'0 0.0
2017-Jun-16 22:01N 54°23' E 018°39'0 0.0
2017-Jun-16 21:31N 54°23' E 018°39'0 0.0
2017-Jun-16 21:01N 54°23' E 018°39'0 0.0
2017-Jun-16 20:30N 54°23' E 018°39'0 0.0
2017-Jun-16 20:00N 54°23' E 018°39'0 0.0
2017-Jun-16 19:31N 54°23' E 018°39'0 0.0
2017-Jun-16 19:00N 54°23' E 018°39'0 0.0
2017-Jun-16 18:31N 54°23' E 018°39'0 0.0
2017-Jun-16 18:01N 54°23' E 018°39'0 0.0
2017-Jun-16 17:30N 54°23' E 018°39'0 0.0
2017-Jun-16 17:01N 54°23' E 018°39'0 0.0
2017-Jun-16 16:31N 54°23' E 018°39'0 0.0
2017-Jun-16 16:00N 54°23' E 018°39'0 0.0
2017-Jun-16 15:31N 54°23' E 018°39'0 0.0
2017-Jun-16 15:00N 54°23' E 018°39'0 0.0
2017-Jun-16 14:31N 54°23' E 018°39'0 0.0
2017-Jun-16 13:31N 54°23' E 018°39'0 0.0
2017-Jun-16 13:00N 54°23' E 018°39'0 0.0
2017-Jun-16 08:02N 54°23' E 018°39'0 0.2
2017-Jun-16 08:00N 54°23' E 018°39'0 0.0
2017-Jun-16 05:44N 54°23' E 018°39'0 0.0
2017-Jun-16 05:30N 54°23' E 018°39'0 0.0
2017-Jun-16 05:00N 54°23' E 018°39'0 0.0
2017-Jun-16 04:30N 54°23' E 018°39'0 0.0
2017-Jun-16 04:00N 54°23' E 018°39'0 0.0
2017-Jun-16 03:30N 54°23' E 018°39'0 0.0
2017-Jun-16 03:00N 54°23' E 018°39'0 0.0
2017-Jun-16 02:30N 54°23' E 018°39'0 0.0
2017-Jun-16 02:00N 54°23' E 018°39'0 0.0
2017-Jun-16 01:30N 54°23' E 018°39'0 0.0
2017-Jun-16 01:00N 54°23' E 018°39'0 0.0
2017-Jun-16 00:30N 54°23' E 018°39'0 0.0
2017-Jun-16 00:00N 54°23' E 018°39'0 0.0
2017-Jun-15 23:30N 54°23' E 018°39'0 0.0
2017-Jun-15 23:00N 54°23' E 018°39'0 0.0
2017-Jun-15 22:30N 54°23' E 018°39'0 0.0
2017-Jun-15 22:00N 54°23' E 018°39'0 0.0
2017-Jun-15 21:30N 54°23' E 018°39'0 0.0
2017-Jun-15 21:00N 54°23' E 018°39'0 0.0
2017-Jun-15 20:30N 54°23' E 018°39'0 0.0
2017-Jun-15 20:00N 54°23' E 018°39'0 0.0
2017-Jun-15 19:30N 54°23' E 018°39'0 0.0
2017-Jun-15 19:00N 54°23' E 018°39'0 0.0
2017-Jun-15 18:30N 54°23' E 018°39'0 0.0
2017-Jun-15 18:00N 54°23' E 018°39'0 0.0
2017-Jun-15 17:30N 54°23' E 018°39'  
Track history (hours):
 
Tides and Currents Weather Stations Pressure Air Temp Water Temp Dewpoint Dewpoint Depression Visibility Wind Speed Wind Dir Waves Ship Positions

Hartland Point

Last reported at 2017-Jun-25 17:28 UTC. Time now 2017-Jun-27 19:03 UTC.
Position N 55°08' E 019°12'.

Length 193 m; draft 5.8 m.

Type: Ship. MMSI: 235505000.

Date/timePositionNaut miles runAvg speedWind from/ knotsBaromVisibWave heightAir tempDewpointWater temp
2017-Jun-25 17:28N 55°08' E 019°12'612.4
2017-Jun-25 17:00N 55°03' E 019°09'612.4
2017-Jun-25 16:30N 54°57' E 019°07'510.3
2017-Jun-25 16:00N 54°52' E 019°04'612.1
2017-Jun-25 15:30N 54°46' E 019°02'612.9
2017-Jun-25 15:00N 54°40' E 018°58'1212.0
2017-Jun-25 14:00N 54°29' E 018°49'0 0.7
2017-Jun-25 13:28N 54°29' E 018°49'0 0.2
2017-Jun-25 12:58N 54°29' E 018°49'0 0.0
2017-Jun-25 12:28N 54°29' E 018°49'0 0.0
2017-Jun-25 11:58N 54°29' E 018°49'0 0.0
2017-Jun-25 11:28N 54°29' E 018°49'0 0.0
2017-Jun-25 10:58N 54°29' E 018°49'0 0.0
2017-Jun-25 10:28N 54°29' E 018°49'0 0.1
2017-Jun-25 09:58N 54°29' E 018°49'0 0.0
2017-Jun-25 09:28N 54°29' E 018°49'0 0.0
2017-Jun-25 08:58N 54°29' E 018°49'0 0.0
2017-Jun-25 08:28N 54°29' E 018°49'0 0.0
2017-Jun-25 07:55N 54°29' E 018°49'0 0.0
2017-Jun-25 07:28N 54°29' E 018°49'0 0.0
2017-Jun-25 06:58N 54°29' E 018°49'0 0.0
2017-Jun-25 06:25N 54°29' E 018°49'0 0.0
2017-Jun-25 05:58N 54°29' E 018°49'0 0.0
2017-Jun-25 05:28N 54°29' E 018°49'0 0.1
2017-Jun-25 04:58N 54°29' E 018°49'0 0.0
2017-Jun-25 04:28N 54°29' E 018°49'0 0.0
2017-Jun-25 03:58N 54°29' E 018°49'0 0.1
2017-Jun-25 03:28N 54°29' E 018°49'0 0.1
2017-Jun-25 02:55N 54°29' E 018°49'0 0.0
2017-Jun-25 02:28N 54°29' E 018°49'0 0.1
2017-Jun-25 01:58N 54°29' E 018°49'0 0.1
2017-Jun-25 01:25N 54°29' E 018°49'0 0.0
2017-Jun-25 00:58N 54°29' E 018°49'0 0.1
2017-Jun-25 00:28N 54°29' E 018°49'0 0.0
2017-Jun-24 23:58N 54°29' E 018°49'0 0.0
2017-Jun-24 23:28N 54°29' E 018°49'0 0.1
2017-Jun-24 22:58N 54°29' E 018°49'0 0.1
2017-Jun-24 22:30N 54°29' E 018°49'0 0.0
2017-Jun-24 22:00N 54°29' E 018°49'0 0.0
2017-Jun-24 21:30N 54°29' E 018°49'0 0.1
2017-Jun-24 21:00N 54°29' E 018°49'0 0.1
2017-Jun-24 20:30N 54°29' E 018°49'0 0.1
2017-Jun-24 20:00N 54°29' E 018°49'0 0.2
2017-Jun-24 19:30N 54°29' E 018°49'0 0.1
2017-Jun-24 19:00N 54°29' E 018°49'0 0.0
2017-Jun-24 18:30N 54°29' E 018°49'0 0.1
2017-Jun-24 18:00N 54°29' E 018°49'0 0.4
2017-Jun-24 17:31N 54°29' E 018°49'5 9.4
2017-Jun-24 17:00N 54°28' E 018°41'2 3.1
2017-Jun-24 16:30N 54°29' E 018°43'3 5.8
2017-Jun-24 16:00N 54°31' E 018°46'2 4.7
2017-Jun-24 15:30N 54°31' E 018°50'3 6.9
2017-Jun-24 15:00N 54°32' E 018°56'4 4.0
2017-Jun-24 14:00N 54°28' E 018°54'4 8.1
2017-Jun-24 13:30N 54°32' E 018°51'612.2
2017-Jun-24 13:00N 54°28' E 018°43'4 7.3
2017-Jun-24 12:31N 54°25' E 018°40'2 4.1
2017-Jun-24 12:00N 54°23' E 018°40'0 0.4
2017-Jun-24 11:30N 54°23' E 018°40'0 0.0
2017-Jun-24 11:00N 54°23' E 018°40'0 0.0
2017-Jun-24 10:30N 54°23' E 018°40'0 0.0
2017-Jun-24 10:00N 54°23' E 018°40'0 0.0
2017-Jun-24 09:30N 54°23' E 018°40'0 0.0
2017-Jun-24 09:00N 54°23' E 018°40'0 0.0
2017-Jun-24 08:30N 54°23' E 018°40'0 0.0
2017-Jun-24 08:00N 54°23' E 018°40'0 0.0
2017-Jun-24 07:30N 54°23' E 018°40'0 0.0
2017-Jun-24 07:00N 54°23' E 018°40'0 0.0
2017-Jun-24 06:30N 54°23' E 018°40'0 0.0
2017-Jun-24 06:00N 54°23' E 018°40'0 0.0
2017-Jun-24 05:30N 54°23' E 018°40'0 0.0
2017-Jun-24 05:00N 54°23' E 018°40'0 0.0
2017-Jun-24 04:30N 54°23' E 018°40'0 0.0
2017-Jun-24 04:00N 54°23' E 018°40'0 0.0
2017-Jun-24 03:30N 54°23' E 018°40'0 0.0
2017-Jun-24 03:00N 54°23' E 018°40'0 0.0
2017-Jun-24 02:30N 54°23' E 018°40'0 0.0
2017-Jun-24 02:00N 54°23' E 018°40'0 0.0
2017-Jun-24 01:30N 54°23' E 018°40'0 0.0
2017-Jun-24 01:00N 54°23' E 018°40'0 0.0
2017-Jun-24 00:30N 54°23' E 018°40'0 0.0
2017-Jun-24 00:00N 54°23' E 018°40'0 0.0
2017-Jun-23 23:30N 54°23' E 018°40'0 0.0
2017-Jun-23 23:00N 54°23' E 018°40'0 0.0
2017-Jun-23 22:30N 54°23' E 018°40'0 0.0
2017-Jun-23 22:00N 54°23' E 018°40'0 0.0
2017-Jun-23 21:30N 54°23' E 018°40'0 0.0
2017-Jun-23 21:00N 54°23' E 018°40'0 0.0
2017-Jun-23 20:27N 54°23' E 018°40'0 0.0
2017-Jun-23 20:00N 54°23' E 018°40'0 0.0
2017-Jun-23 19:30N 54°23' E 018°40'0 0.0
2017-Jun-23 19:00N 54°23' E 018°40'0 0.0
2017-Jun-23 18:30N 54°23' E 018°40'0 0.0
2017-Jun-23 18:00N 54°23' E 018°40'0 0.0
2017-Jun-23 17:30N 54°23' E 018°40'0 0.0
2017-Jun-23 17:00N 54°23' E 018°40'0 0.0
2017-Jun-23 16:30N 54°23' E 018°40'0 0.0
2017-Jun-23 16:00N 54°23' E 018°40'0 0.0
2017-Jun-23 15:30N 54°23' E 018°40'0 0.0
2017-Jun-23 15:00N 54°23' E 018°40'0 0.0
2017-Jun-23 14:00N 54°23' E 018°40'0 0.0
2017-Jun-23 13:24N 54°23' E 018°40'0 0.0
2017-Jun-23 13:00N 54°23' E 018°40'0 0.0
2017-Jun-23 12:30N 54°23' E 018°40'0 0.0
2017-Jun-23 12:00N 54°23' E 018°40'0 0.0
2017-Jun-23 11:30N 54°23' E 018°40'0 0.0
2017-Jun-23 11:00N 54°23' E 018°40'0 0.0
2017-Jun-23 10:30N 54°23' E 018°40'0 0.0
2017-Jun-23 10:00N 54°23' E 018°40'0 0.0
2017-Jun-23 09:30N 54°23' E 018°40'0 0.0
2017-Jun-23 09:00N 54°23' E 018°40'0 0.0
2017-Jun-23 08:30N 54°23' E 018°40'0 0.0
2017-Jun-23 08:00N 54°23' E 018°40'0 0.0
2017-Jun-23 07:30N 54°23' E 018°40'0 0.0
2017-Jun-23 07:00N 54°23' E 018°40'0 0.0
2017-Jun-23 06:30N 54°23' E 018°40'0 0.0
2017-Jun-23 06:00N 54°23' E 018°40'0 0.0
2017-Jun-23 05:30N 54°23' E 018°40'0 0.0
2017-Jun-23 05:00N 54°23' E 018°40'0 0.0
2017-Jun-23 04:30N 54°23' E 018°40'0 0.0
2017-Jun-23 04:00N 54°23' E 018°40'0 0.0
2017-Jun-23 03:30N 54°23' E 018°40'0 0.0
2017-Jun-23 03:00N 54°23' E 018°40'0 0.0
2017-Jun-23 02:30N 54°23' E 018°40'0 0.0
2017-Jun-23 02:00N 54°23' E 018°40'0 0.0
2017-Jun-23 01:30N 54°23' E 018°40'0 0.0
2017-Jun-23 01:00N 54°23' E 018°40'0 0.0
2017-Jun-23 00:30N 54°23' E 018°40'0 0.0
2017-Jun-23 00:00N 54°23' E 018°40'0 0.0
2017-Jun-22 23:30N 54°23' E 018°40'0 0.0
2017-Jun-22 23:00N 54°23' E 018°40'0 0.0
2017-Jun-22 22:30N 54°23' E 018°40'0 0.0
2017-Jun-22 22:00N 54°23' E 018°40'0 0.0
2017-Jun-22 21:30N 54°23' E 018°40'0 0.0
2017-Jun-22 21:00N 54°23' E 018°40'0 0.0
2017-Jun-22 20:30N 54°23' E 018°40'0 0.0
2017-Jun-22 20:00N 54°23' E 018°40'0 0.0
2017-Jun-22 19:30N 54°23' E 018°40'0 0.0
2017-Jun-22 19:00N 54°23' E 018°40'0 0.0
2017-Jun-22 18:30N 54°23' E 018°40'0 0.0
2017-Jun-22 18:00N 54°23' E 018°40'0 0.0
2017-Jun-22 17:30N 54°23' E 018°40'0 0.0
2017-Jun-22 17:00N 54°23' E 018°40'0 0.0
2017-Jun-22 16:30N 54°23' E 018°40'0 0.0
2017-Jun-22 16:00N 54°23' E 018°40'0 0.0
2017-Jun-22 15:30N 54°23' E 018°40'0 0.0
2017-Jun-22 15:00N 54°23' E 018°40'0 0.0
2017-Jun-22 14:00N 54°23' E 018°40'0 0.0
2017-Jun-22 13:30N 54°23' E 018°40'0 0.0
2017-Jun-22 13:00N 54°23' E 018°40'0 0.0
2017-Jun-22 12:29N 54°23' E 018°40'0 0.0
2017-Jun-22 11:59N 54°23' E 018°40'0 0.0
2017-Jun-22 11:29N 54°23' E 018°40'0 0.0
2017-Jun-22 10:59N 54°23' E 018°40'0 0.0
2017-Jun-22 10:29N 54°23' E 018°40'0 0.0
2017-Jun-22 09:59N 54°23' E 018°40'0 0.0
2017-Jun-22 09:29N 54°23' E 018°40'0 0.0
2017-Jun-22 08:59N 54°23' E 018°40'0 0.0
2017-Jun-22 08:29N 54°23' E 018°40'0 0.0
2017-Jun-22 07:59N 54°23' E 018°40'0 0.0
2017-Jun-22 07:29N 54°23' E 018°40'0 0.0
2017-Jun-22 06:59N 54°23' E 018°40'0 0.0
2017-Jun-22 06:29N 54°23' E 018°40'0 0.0
2017-Jun-22 05:59N 54°23' E 018°40'0 0.0
2017-Jun-22 05:29N 54°23' E 018°40'0 0.0
2017-Jun-22 04:59N 54°23' E 018°40'0 0.0
2017-Jun-21 16:56N 54°23' E 018°40'0 0.0
2017-Jun-21 16:29N 54°23' E 018°40'0 0.0
2017-Jun-21 15:59N 54°23' E 018°40'0 0.0
2017-Jun-21 15:29N 54°23' E 018°40'0 0.0
2017-Jun-21 14:59N 54°23' E 018°40'0 0.0
2017-Jun-21 13:59N 54°23' E 018°40'0 0.0
2017-Jun-21 13:29N 54°23' E 018°40'0 0.0
2017-Jun-21 12:59N 54°23' E 018°40'0 0.0
2017-Jun-21 12:29N 54°23' E 018°40'0 0.0
2017-Jun-21 11:59N 54°23' E 018°40'0 0.0
2017-Jun-21 11:29N 54°23' E 018°40'0 0.0
2017-Jun-21 10:59N 54°23' E 018°40'0 0.0
2017-Jun-21 10:29N 54°23' E 018°40'0 0.0
2017-Jun-21 09:59N 54°23' E 018°40'0 0.0
2017-Jun-21 09:29N 54°23' E 018°40'0 0.0
2017-Jun-21 08:59N 54°23' E 018°40'0 0.0
2017-Jun-21 08:29N 54°23' E 018°40'0 0.0
2017-Jun-21 07:59N 54°23' E 018°40'0 0.0
2017-Jun-21 07:29N 54°23' E 018°40'0 0.0
2017-Jun-21 06:59N 54°23' E 018°40'0 0.0
2017-Jun-21 06:29N 54°23' E 018°40'0 0.0
2017-Jun-21 05:59N 54°23' E 018°40'0 0.0
2017-Jun-21 05:29N 54°23' E 018°40'0 0.0
2017-Jun-20 18:47N 54°23' E 018°40'0 0.0
2017-Jun-20 18:29N 54°23' E 018°40'0 0.0
2017-Jun-20 17:59N 54°23' E 018°40'0 0.0
2017-Jun-20 17:29N 54°23' E 018°40'0 0.0
2017-Jun-20 16:59N 54°23' E 018°40'0 0.0
2017-Jun-20 16:29N 54°23' E 018°40'0 0.0
2017-Jun-20 15:59N 54°23' E 018°40'0 0.0
2017-Jun-20 15:29N 54°23' E 018°40'0 0.0
2017-Jun-20 14:59N 54°23' E 018°40'0 0.0
2017-Jun-20 13:59N 54°23' E 018°40'0 0.0
2017-Jun-20 13:29N 54°23' E 018°40'0 0.0
2017-Jun-20 12:59N 54°23' E 018°40'0 0.0
2017-Jun-20 12:29N 54°23' E 018°40'0 0.0
2017-Jun-20 11:59N 54°23' E 018°40'0 0.0
2017-Jun-20 11:29N 54°23' E 018°40'0 0.0
2017-Jun-20 10:59N 54°23' E 018°40'0 0.0
2017-Jun-20 10:29N 54°23' E 018°40'0 0.0
2017-Jun-20 09:59N 54°23' E 018°40'0 0.0
2017-Jun-20 09:29N 54°23' E 018°40'0 0.0
2017-Jun-20 08:59N 54°23' E 018°40'0 0.0
2017-Jun-20 08:29N 54°23' E 018°40'0 0.0
2017-Jun-20 07:59N 54°23' E 018°40'0 0.0
2017-Jun-20 07:29N 54°23' E 018°40'0 0.0
2017-Jun-19 20:11N 54°23' E 018°40'0 0.0
2017-Jun-19 19:59N 54°23' E 018°40'0 0.0
2017-Jun-19 19:29N 54°23' E 018°40'0 0.2
2017-Jun-19 18:16N 54°23' E 018°39'0 0.1
2017-Jun-19 17:58N 54°23' E 018°39'0 0.0
2017-Jun-19 17:28N 54°23' E 018°39'0 0.0
2017-Jun-19 16:58N 54°23' E 018°39'0 0.0
2017-Jun-19 16:28N 54°23' E 018°39'0 0.0
2017-Jun-19 15:58N 54°23' E 018°39'0 0.0
2017-Jun-19 15:28N 54°23' E 018°39'0 0.0
2017-Jun-19 14:58N 54°23' E 018°39'0 0.0
2017-Jun-19 14:28N 54°23' E 018°39'0 0.0
2017-Jun-19 13:28N 54°23' E 018°39'0 0.0
2017-Jun-19 12:58N 54°23' E 018°39'0 0.0
2017-Jun-19 12:28N 54°23' E 018°39'0 0.0
2017-Jun-19 11:58N 54°23' E 018°39'0 0.0
2017-Jun-19 11:28N 54°23' E 018°39'0 0.0
2017-Jun-19 10:58N 54°23' E 018°39'0 0.0
2017-Jun-19 10:28N 54°23' E 018°39'0 0.0
2017-Jun-19 09:58N 54°23' E 018°39'0 0.0
2017-Jun-19 09:28N 54°23' E 018°39'0 0.0
2017-Jun-19 08:58N 54°23' E 018°39'0 0.0
2017-Jun-19 08:28N 54°23' E 018°39'0 0.0
2017-Jun-19 07:59N 54°23' E 018°39'0 0.0
2017-Jun-19 07:29N 54°23' E 018°39'0 0.0
2017-Jun-18 15:50N 54°23' E 018°39'0 0.0
2017-Jun-18 15:29N 54°23' E 018°39'0 0.0
2017-Jun-18 14:59N 54°23' E 018°39'0 0.0
2017-Jun-18 13:58N 54°23' E 018°39'0 0.0
2017-Jun-18 08:38N 54°23' E 018°39'0 0.0
2017-Jun-18 08:29N 54°23' E 018°39'0 0.0
2017-Jun-18 07:59N 54°23' E 018°39'0 0.0
2017-Jun-18 07:29N 54°23' E 018°39'0 0.0
2017-Jun-18 06:59N 54°23' E 018°39'0 0.0
2017-Jun-18 06:29N 54°23' E 018°39'0 0.0
2017-Jun-18 05:59N 54°23' E 018°39'0 0.0
2017-Jun-18 05:29N 54°23' E 018°39'0 0.0
2017-Jun-18 04:59N 54°23' E 018°39'0 0.0
2017-Jun-18 04:29N 54°23' E 018°39'0 0.0
2017-Jun-18 03:59N 54°23' E 018°39'0 0.0
2017-Jun-18 03:29N 54°23' E 018°39'0 0.0
2017-Jun-18 02:59N 54°23' E 018°39'0 0.0
2017-Jun-18 02:29N 54°23' E 018°39'0 0.0
2017-Jun-18 01:59N 54°23' E 018°39'0 0.0
2017-Jun-18 01:29N 54°23' E 018°39'0 0.0
2017-Jun-18 00:59N 54°23' E 018°39'0 0.0
2017-Jun-18 00:29N 54°23' E 018°39'0 0.0
2017-Jun-17 23:59N 54°23' E 018°39'0 0.0
2017-Jun-17 23:29N 54°23' E 018°39'0 0.0
2017-Jun-17 22:59N 54°23' E 018°39'0 0.0
2017-Jun-17 22:29N 54°23' E 018°39'0 0.0
2017-Jun-17 21:59N 54°23' E 018°39'0 0.0
2017-Jun-17 21:29N 54°23' E 018°39'0 0.0
2017-Jun-17 20:59N 54°23' E 018°39'0 0.0
2017-Jun-17 20:29N 54°23' E 018°39'0 0.0
2017-Jun-17 19:59N 54°23' E 018°39'0 0.0
2017-Jun-17 19:29N 54°23' E 018°39'0 0.0
2017-Jun-17 18:59N 54°23' E 018°39'0 0.0
2017-Jun-17 18:29N 54°23' E 018°39'0 0.0
2017-Jun-17 17:59N 54°23' E 018°39'0 0.0
2017-Jun-17 17:29N 54°23' E 018°39'0 0.0
2017-Jun-17 16:59N 54°23' E 018°39'0 0.0
2017-Jun-17 16:29N 54°23' E 018°39'0 0.0
2017-Jun-17 15:59N 54°23' E 018°39'0 0.0
2017-Jun-17 15:29N 54°23' E 018°39'0 0.0
2017-Jun-17 14:59N 54°23' E 018°39'0 0.0
2017-Jun-17 14:29N 54°23' E 018°39'0 0.0
2017-Jun-17 13:29N 54°23' E 018°39'0 0.0
2017-Jun-17 12:59N 54°23' E 018°39'0 0.0
2017-Jun-17 12:29N 54°23' E 018°39'0 0.0
2017-Jun-17 11:59N 54°23' E 018°39'0 0.0
2017-Jun-17 11:29N 54°23' E 018°39'0 0.0
2017-Jun-17 10:59N 54°23' E 018°39'0 0.0
2017-Jun-17 10:29N 54°23' E 018°39'0 0.0
2017-Jun-17 09:59N 54°23' E 018°39'0 0.0
2017-Jun-17 09:29N 54°23' E 018°39'0 0.0
2017-Jun-17 08:59N 54°23' E 018°39'0 0.0
2017-Jun-17 08:29N 54°23' E 018°39'0 0.0
2017-Jun-17 07:59N 54°23' E 018°39'0 0.0
2017-Jun-17 07:29N 54°23' E 018°39'0 0.0
2017-Jun-17 06:59N 54°23' E 018°39'0 0.0
2017-Jun-17 06:27N 54°23' E 018°39'0 0.0
2017-Jun-17 06:00N 54°23' E 018°39'0 0.0
2017-Jun-17 05:31N 54°23' E 018°39'0 0.0
2017-Jun-17 05:00N 54°23' E 018°39'0 0.0
2017-Jun-17 04:30N 54°23' E 018°39'0 0.0
2017-Jun-17 04:01N 54°23' E 018°39'0 0.0
2017-Jun-17 03:30N 54°23' E 018°39'0 0.0
2017-Jun-17 03:01N 54°23' E 018°39'0 0.0
2017-Jun-17 02:30N 54°23' E 018°39'0 0.0
2017-Jun-17 02:01N 54°23' E 018°39'0 0.0
2017-Jun-17 01:30N 54°23' E 018°39'0 0.0
2017-Jun-17 01:01N 54°23' E 018°39'0 0.0
2017-Jun-17 00:30N 54°23' E 018°39'0 0.0
2017-Jun-17 00:01N 54°23' E 018°39'0 0.0
2017-Jun-16 23:31N 54°23' E 018°39'0 0.0
2017-Jun-16 23:01N 54°23' E 018°39'0 0.0
2017-Jun-16 22:30N 54°23' E 018°39'0 0.0
2017-Jun-16 22:01N 54°23' E 018°39'0 0.0
2017-Jun-16 21:31N 54°23' E 018°39'0 0.0
2017-Jun-16 21:01N 54°23' E 018°39'0 0.0
2017-Jun-16 20:30N 54°23' E 018°39'0 0.0
2017-Jun-16 20:00N 54°23' E 018°39'0 0.0
2017-Jun-16 19:31N 54°23' E 018°39'0 0.0
2017-Jun-16 19:00N 54°23' E 018°39'0 0.0
2017-Jun-16 18:31N 54°23' E 018°39'0 0.0
2017-Jun-16 18:01N 54°23' E 018°39'0 0.0
2017-Jun-16 17:30N 54°23' E 018°39'0 0.0
2017-Jun-16 17:01N 54°23' E 018°39'0 0.0
2017-Jun-16 16:31N 54°23' E 018°39'0 0.0
2017-Jun-16 16:00N 54°23' E 018°39'0 0.0
2017-Jun-16 15:31N 54°23' E 018°39'0 0.0
2017-Jun-16 15:00N 54°23' E 018°39'0 0.0
2017-Jun-16 14:31N 54°23' E 018°39'0 0.0
2017-Jun-16 13:31N 54°23' E 018°39'0 0.0
2017-Jun-16 13:00N 54°23' E 018°39'0 0.0
2017-Jun-16 08:02N 54°23' E 018°39'0 0.2
2017-Jun-16 08:00N 54°23' E 018°39'0 0.0
2017-Jun-16 05:44N 54°23' E 018°39'0 0.0
2017-Jun-16 05:30N 54°23' E 018°39'0 0.0
2017-Jun-16 05:00N 54°23' E 018°39'0 0.0
2017-Jun-16 04:30N 54°23' E 018°39'0 0.0
2017-Jun-16 04:00N 54°23' E 018°39'0 0.0
2017-Jun-16 03:30N 54°23' E 018°39'0 0.0
2017-Jun-16 03:00N 54°23' E 018°39'0 0.0
2017-Jun-16 02:30N 54°23' E 018°39'0 0.0
2017-Jun-16 02:00N 54°23' E 018°39'0 0.0
2017-Jun-16 01:30N 54°23' E 018°39'0 0.0
2017-Jun-16 01:00N 54°23' E 018°39'0 0.0
2017-Jun-16 00:30N 54°23' E 018°39'0 0.0
2017-Jun-16 00:00N 54°23' E 018°39'0 0.0
2017-Jun-15 23:30N 54°23' E 018°39'0 0.0
2017-Jun-15 23:00N 54°23' E 018°39'0 0.0
2017-Jun-15 22:30N 54°23' E 018°39'0 0.0
2017-Jun-15 22:00N 54°23' E 018°39'0 0.0
2017-Jun-15 21:30N 54°23' E 018°39'0 0.0
2017-Jun-15 21:00N 54°23' E 018°39'0 0.0
2017-Jun-15 20:30N 54°23' E 018°39'0 0.0
2017-Jun-15 20:00N 54°23' E 018°39'0 0.0
2017-Jun-15 19:30N 54°23' E 018°39'0 0.0
2017-Jun-15 19:00N 54°23' E 018°39'0 0.0
2017-Jun-15 18:30N 54°23' E 018°39'0 0.0
2017-Jun-15 18:00N 54°23' E 018°39'0 0.0
2017-Jun-15 17:30N 54°23' E 018°39'  

Dump ship's entire track history